createdAt,value
2023-01-27T00:00:39.929Z,24.17
2023-01-27T00:03:07.981Z,26.23
2023-01-27T00:05:35.152Z,24.97
2023-01-27T00:08:02.314Z,23.97
2023-01-27T00:10:29.496Z,27.53
2023-01-27T00:13:15.364Z,27.03
2023-01-27T00:15:42.608Z,25.60
2023-01-27T00:18:10.650Z,25.40
2023-01-27T00:20:56.231Z,25.33
2023-01-27T00:23:43.103Z,25.40
2023-01-27T00:26:11.923Z,26.30
2023-01-27T00:28:40.255Z,28.10
2023-01-27T00:31:27.697Z,23.50
2023-01-27T00:33:56.223Z,23.07
2023-01-27T00:36:23.485Z,26.27
2023-01-27T00:38:50.607Z,23.67
2023-01-27T00:41:21.349Z,24.70
2023-01-27T00:43:48.704Z,26.43
2023-01-27T00:46:16.556Z,23.97
2023-01-27T00:48:43.844Z,22.67
2023-01-27T00:51:11.640Z,23.20
2023-01-27T00:53:38.774Z,24.57
2023-01-27T00:56:06.334Z,25.67
2023-01-27T00:58:33.590Z,25.80
2023-01-27T01:01:03.623Z,27.93
2023-01-27T01:03:31.546Z,23.37
2023-01-27T01:06:03.218Z,23.27
2023-01-27T01:08:33.727Z,24.60
2023-01-27T01:11:00.966Z,21.80
2023-01-27T01:13:28.516Z,23.87
2023-01-27T01:15:56.737Z,23.83
2023-01-27T01:18:25.330Z,23.33
2023-01-27T01:20:52.441Z,23.63
2023-01-27T01:23:19.606Z,23.70
2023-01-27T01:25:53.548Z,24.10
2023-01-27T01:28:20.767Z,24.40
2023-01-27T01:30:48.248Z,24.00
2023-01-27T01:33:15.897Z,24.27
2023-01-27T01:35:43.197Z,23.67
2023-01-27T01:38:10.562Z,22.20
2023-01-27T01:40:44.743Z,24.73
2023-01-27T01:43:16.430Z,21.80
2023-01-27T01:45:46.951Z,23.80
2023-01-27T01:48:22.815Z,23.33
2023-01-27T01:50:55.624Z,22.07
2023-01-27T01:53:29.275Z,25.43
2023-01-27T01:55:57.695Z,22.37
2023-01-27T01:58:28.023Z,22.93
2023-01-27T02:00:56.263Z,22.57
2023-01-27T02:03:25.456Z,22.20
2023-01-27T02:05:54.601Z,21.10
2023-01-27T02:08:31.386Z,21.77
2023-01-27T02:10:58.961Z,19.20
2023-01-27T02:13:26.115Z,20.43
2023-01-27T02:15:54.260Z,19.37
2023-01-27T02:18:21.567Z,21.53
2023-01-27T02:20:53.809Z,20.77
2023-01-27T02:23:25.437Z,19.77
2023-01-27T02:26:10.948Z,20.13
2023-01-27T02:28:38.277Z,23.47
2023-01-27T02:31:05.642Z,20.83
2023-01-27T02:33:32.853Z,19.63
2023-01-27T02:36:09.184Z,21.47
2023-01-27T02:38:39.017Z,21.93
2023-01-27T02:41:18.774Z,18.93
2023-01-27T02:43:45.908Z,19.03
2023-01-27T02:46:13.041Z,19.30
2023-01-27T02:48:40.250Z,19.30
2023-01-27T02:51:07.434Z,20.47
2023-01-27T02:53:34.968Z,20.10
2023-01-27T02:56:02.293Z,20.93
2023-01-27T02:58:29.492Z,20.60
2023-01-27T03:00:56.672Z,20.70
2023-01-27T03:03:23.815Z,18.13
2023-01-27T03:05:54.236Z,21.30
2023-01-27T03:08:21.437Z,21.40
2023-01-27T03:10:52.542Z,21.53
2023-01-27T03:13:23.481Z,18.63
2023-01-27T03:16:09.569Z,20.93
2023-01-27T03:18:37.073Z,20.80
2023-01-27T03:21:05.597Z,21.37
2023-01-27T03:23:34.885Z,20.30
2023-01-27T03:26:02.812Z,19.97
2023-01-27T03:28:30.046Z,17.03
2023-01-27T03:31:01.197Z,20.37
2023-01-27T03:33:28.543Z,20.00
2023-01-27T03:36:14.942Z,18.13
2023-01-27T03:39:00.908Z,18.70
2023-01-27T03:41:47.133Z,17.33
2023-01-27T03:44:32.729Z,18.80
2023-01-27T03:46:59.961Z,18.70
2023-01-27T03:49:27.170Z,17.10
2023-01-27T03:51:54.327Z,18.57
2023-01-27T03:54:21.435Z,18.30
2023-01-27T03:56:48.572Z,16.57
2023-01-27T03:59:15.696Z,18.50
2023-01-27T04:01:43.825Z,18.57
2023-01-27T04:04:30.423Z,17.30
2023-01-27T04:07:03.459Z,17.23
2023-01-27T04:09:37.166Z,16.73
2023-01-27T04:12:06.399Z,16.27
2023-01-27T04:14:34.394Z,16.83
2023-01-27T04:17:05.860Z,16.20
2023-01-27T04:19:33.471Z,15.10
2023-01-27T04:22:01.187Z,15.17
2023-01-27T04:24:28.737Z,15.57
2023-01-27T04:26:57.230Z,17.03
2023-01-27T04:29:26.049Z,16.80
2023-01-27T04:31:53.441Z,15.93
2023-01-27T04:34:20.800Z,15.50
2023-01-27T04:36:48.105Z,15.47
2023-01-27T04:39:15.692Z,17.17
2023-01-27T04:41:43.105Z,15.47
2023-01-27T04:44:10.640Z,12.90
2023-01-27T04:46:37.953Z,15.03
2023-01-27T04:49:05.709Z,14.33
2023-01-27T04:51:33.427Z,15.17
2023-01-27T04:54:00.849Z,13.47
2023-01-27T04:56:32.597Z,13.63
2023-01-27T04:59:01.032Z,14.40
2023-01-27T05:01:28.896Z,15.23
2023-01-27T05:03:56.488Z,14.70
2023-01-27T05:06:24.124Z,15.40
2023-01-27T05:08:51.601Z,16.73
2023-01-27T05:11:19.129Z,16.33
2023-01-27T05:13:46.671Z,15.17
2023-01-27T05:16:15.647Z,14.90
2023-01-27T05:18:43.405Z,15.40
2023-01-27T05:21:13.223Z,14.60
2023-01-27T05:23:40.536Z,14.77
2023-01-27T05:26:27.431Z,16.70
2023-01-27T05:28:55.468Z,15.00
2023-01-27T05:31:24.772Z,15.43
2023-01-27T05:33:53.142Z,15.77
2023-01-27T05:36:21.700Z,13.97
2023-01-27T05:38:48.886Z,14.90
2023-01-27T05:41:16.933Z,16.40
2023-01-27T05:43:45.653Z,16.80
2023-01-27T05:46:13.828Z,15.80
2023-01-27T05:48:42.910Z,15.07
2023-01-27T05:51:11.799Z,15.87
2023-01-27T05:53:40.020Z,14.67
2023-01-27T05:56:10.456Z,15.80
2023-01-27T05:58:38.070Z,16.63
2023-01-27T06:01:13.088Z,16.43
2023-01-27T06:03:40.284Z,17.53
2023-01-27T06:06:08.528Z,16.30
2023-01-27T06:08:36.233Z,17.15
2023-01-27T06:11:03.733Z,15.50
2023-01-27T06:13:30.944Z,18.30
2023-01-27T06:15:58.463Z,17.60
2023-01-27T06:18:25.682Z,15.63
2023-01-27T06:20:52.818Z,16.17
2023-01-27T06:23:19.969Z,15.50
2023-01-27T06:25:48.496Z,17.20
2023-01-27T06:28:28.219Z,17.47
2023-01-27T06:30:56.901Z,19.50
2023-01-27T06:33:24.302Z,18.93
2023-01-27T06:35:51.537Z,17.17
2023-01-27T06:38:18.687Z,16.73
2023-01-27T06:40:45.832Z,16.27
2023-01-27T06:43:13.905Z,17.87
2023-01-27T06:45:41.325Z,18.50
2023-01-27T06:48:09.059Z,19.37
2023-01-27T06:50:37.202Z,19.40
2023-01-27T06:53:06.009Z,19.87
2023-01-27T06:55:33.479Z,17.37
2023-01-27T06:58:01.813Z,19.63
2023-01-27T07:00:29.001Z,18.87
2023-01-27T07:02:56.715Z,20.60
2023-01-27T07:05:24.044Z,17.97
2023-01-27T07:07:51.196Z,21.30
2023-01-27T07:10:18.410Z,17.53
2023-01-27T07:12:45.758Z,22.77
2023-01-27T07:15:13.209Z,17.47
2023-01-27T07:17:40.577Z,18.93
2023-01-27T07:20:09.455Z,16.23
2023-01-27T07:22:36.612Z,17.73
2023-01-27T07:25:04.309Z,15.63
2023-01-27T07:27:31.492Z,19.40
2023-01-27T07:29:58.674Z,19.17
2023-01-27T07:32:27.394Z,19.77
2023-01-27T07:34:55.599Z,21.03
2023-01-27T07:37:22.900Z,18.07
2023-01-27T07:39:50.021Z,19.93
2023-01-27T07:42:17.196Z,18.17
2023-01-27T07:44:44.318Z,16.30
2023-01-27T07:47:11.639Z,17.90
2023-01-27T07:49:38.763Z,18.60
2023-01-27T07:52:05.930Z,16.37
2023-01-27T07:54:33.075Z,19.77
2023-01-27T07:57:01.520Z,17.37
2023-01-27T07:59:28.995Z,17.63
2023-01-27T08:01:56.127Z,16.10
2023-01-27T08:04:23.251Z,17.93
2023-01-27T08:06:50.356Z,20.73
2023-01-27T08:09:17.535Z,17.87
2023-01-27T08:11:44.651Z,18.87
2023-01-27T08:14:11.809Z,17.47
2023-01-27T08:16:39.018Z,16.23
2023-01-27T08:19:06.147Z,15.73
2023-01-27T08:21:33.286Z,18.03
2023-01-27T08:24:00.736Z,17.07
2023-01-27T08:26:28.084Z,15.77
2023-01-27T08:28:55.218Z,15.73
2023-01-27T08:31:22.435Z,17.33
2023-01-27T08:33:53.812Z,15.27
2023-01-27T08:36:21.629Z,15.97
2023-01-27T08:38:51.992Z,16.37
2023-01-27T08:41:23.252Z,17.77
2023-01-27T08:43:50.426Z,17.33
2023-01-27T08:46:17.785Z,16.53
2023-01-27T08:48:44.997Z,17.40
2023-01-27T08:51:13.630Z,19.67
2023-01-27T08:53:41.088Z,19.77
2023-01-27T08:56:09.229Z,17.83
2023-01-27T08:58:36.506Z,18.43
2023-01-27T09:01:04.544Z,16.63
2023-01-27T09:03:32.373Z,15.50
2023-01-27T09:05:59.774Z,15.10
2023-01-27T09:08:27.198Z,17.53
2023-01-27T09:10:54.396Z,17.73
2023-01-27T09:13:24.656Z,14.30
2023-01-27T09:15:52.664Z,14.67
2023-01-27T09:18:20.157Z,20.90
2023-01-27T09:20:47.311Z,18.23
2023-01-27T09:23:14.468Z,16.87
2023-01-27T09:25:41.670Z,15.17
2023-01-27T09:28:16.946Z,12.90
2023-01-27T09:30:47.055Z,14.97
2023-01-27T09:33:17.365Z,14.27
2023-01-27T09:35:47.228Z,13.53
2023-01-27T09:38:17.378Z,13.83
2023-01-27T09:40:44.482Z,14.37
2023-01-27T09:43:20.654Z,13.83
2023-01-27T09:45:52.765Z,14.10
2023-01-27T09:48:22.957Z,13.17
2023-01-27T09:50:53.153Z,12.60
2023-01-27T09:53:38.587Z,12.60
2023-01-27T09:56:12.440Z,15.70
2023-01-27T09:58:54.666Z,13.70
2023-01-27T10:01:40.690Z,14.30
2023-01-27T10:04:25.986Z,13.70
2023-01-27T10:06:53.193Z,12.70
2023-01-27T10:09:35.100Z,14.30
2023-01-27T10:12:34.491Z,12.23
2023-01-27T10:15:10.601Z,15.13
2023-01-27T10:17:43.920Z,14.33
2023-01-27T10:20:19.906Z,15.53
2023-01-27T10:22:47.046Z,12.83
2023-01-27T10:25:26.241Z,14.20
2023-01-27T10:27:57.816Z,12.17
2023-01-27T10:30:35.306Z,10.57
2023-01-27T10:33:19.341Z,9.20
2023-01-27T10:35:54.328Z,11.40
2023-01-27T10:38:28.791Z,10.40
2023-01-27T10:41:07.982Z,9.77
2023-01-27T10:43:53.195Z,11.30
2023-01-27T10:46:34.402Z,9.10
2023-01-27T10:49:01.538Z,9.00
2023-01-27T10:51:32.743Z,10.30
2023-01-27T10:54:12.042Z,10.30
2023-01-27T10:56:42.404Z,10.37
2023-01-27T10:59:21.252Z,10.27
2023-01-27T11:01:56.926Z,9.97
2023-01-27T11:04:36.775Z,10.43
2023-01-27T11:07:04.945Z,9.83
2023-01-27T11:09:36.423Z,10.00
2023-01-27T11:12:06.226Z,7.73
2023-01-27T11:14:38.999Z,8.90
2023-01-27T11:17:26.046Z,9.00
2023-01-27T11:19:59.478Z,9.23
2023-01-27T11:22:35.374Z,9.13
2023-01-27T11:25:08.488Z,8.97
2023-01-27T11:27:47.260Z,8.10
2023-01-27T11:30:17.822Z,7.13
2023-01-27T11:32:48.556Z,7.57
2023-01-27T11:35:16.388Z,7.37
2023-01-27T11:37:48.864Z,7.43
2023-01-27T11:40:31.713Z,7.20
2023-01-27T11:42:59.619Z,4.67
2023-01-27T11:45:28.158Z,6.47
2023-01-27T11:47:57.265Z,6.27
2023-01-27T11:50:27.368Z,6.17
2023-01-27T11:53:01.223Z,10.33
2023-01-27T11:55:34.554Z,12.03
2023-01-27T11:58:21.936Z,12.37
2023-01-27T12:00:52.379Z,9.43
2023-01-27T12:03:31.478Z,16.70
2023-01-27T12:06:01.790Z,9.57
2023-01-27T12:08:39.766Z,13.20
2023-01-27T12:11:23.777Z,9.30
2023-01-27T12:13:55.288Z,6.97
2023-01-27T12:16:24.360Z,6.23
2023-01-27T12:19:02.670Z,6.50
2023-01-27T12:21:41.375Z,6.87
2023-01-27T12:24:15.200Z,6.10
2023-01-27T12:26:44.948Z,6.17
2023-01-27T12:29:18.158Z,6.67
2023-01-27T12:31:48.049Z,6.40
2023-01-27T12:34:24.542Z,7.40
2023-01-27T12:36:51.979Z,10.63
2023-01-27T12:39:38.011Z,5.30
2023-01-27T12:42:05.269Z,5.67
2023-01-27T12:44:43.185Z,5.90
2023-01-27T12:47:29.353Z,5.30
2023-01-27T12:50:15.286Z,7.57
2023-01-27T12:52:42.755Z,6.20
2023-01-27T12:55:28.168Z,4.30
2023-01-27T12:57:55.305Z,5.23
2023-01-27T13:00:22.464Z,5.50
2023-01-27T13:02:49.667Z,5.43
2023-01-27T13:05:18.109Z,5.03
2023-01-27T13:07:46.663Z,4.17
2023-01-27T13:10:32.143Z,5.70
2023-01-27T13:13:00.794Z,11.50
2023-01-27T13:15:31.132Z,19.40
2023-01-27T13:18:12.380Z,13.87
2023-01-27T13:20:44.899Z,19.27
2023-01-27T13:23:29.269Z,22.33
2023-01-27T13:26:05.491Z,12.17
2023-01-27T13:28:50.075Z,6.90
2023-01-27T13:31:37.345Z,6.30
2023-01-27T13:34:07.140Z,8.70
2023-01-27T13:36:49.511Z,8.67
2023-01-27T13:39:28.641Z,7.63
2023-01-27T13:41:55.776Z,5.97
2023-01-27T13:44:46.723Z,6.77
2023-01-27T13:47:16.544Z,7.73
2023-01-27T13:49:45.542Z,8.23
2023-01-27T13:52:13.051Z,7.73
2023-01-27T13:54:40.342Z,7.90
2023-01-27T13:57:16.375Z,6.80
2023-01-27T13:59:55.385Z,10.57
2023-01-27T14:02:31.617Z,11.63
2023-01-27T14:05:17.286Z,8.80
2023-01-27T14:07:59.669Z,8.10
2023-01-27T14:10:35.669Z,7.30
2023-01-27T14:13:20.848Z,8.00
2023-01-27T14:15:55.708Z,6.97
2023-01-27T14:18:28.509Z,8.03
2023-01-27T14:21:08.087Z,7.03
2023-01-27T14:23:45.548Z,7.70
2023-01-27T14:26:31.574Z,8.03
2023-01-27T14:29:04.714Z,7.63
2023-01-27T14:31:55.110Z,9.17
2023-01-27T14:34:29.200Z,7.43
2023-01-27T14:36:59.819Z,8.13
2023-01-27T14:39:42.257Z,7.33
2023-01-27T14:42:15.428Z,10.10
2023-01-27T14:45:06.819Z,8.90
2023-01-27T14:47:33.919Z,8.50
2023-01-27T14:50:17.116Z,7.27
2023-01-27T14:52:50.364Z,8.50
2023-01-27T14:55:30.423Z,8.43
2023-01-27T14:58:06.738Z,12.13
2023-01-27T15:00:53.555Z,9.30
2023-01-27T15:03:39.436Z,13.33
2023-01-27T15:06:06.595Z,9.30
2023-01-27T15:08:38.326Z,12.33
2023-01-27T15:11:22.592Z,8.73
2023-01-27T15:14:08.550Z,13.33
2023-01-27T15:16:54.060Z,15.00
2023-01-27T15:19:21.190Z,9.03
2023-01-27T15:21:51.351Z,9.47
2023-01-27T15:24:28.178Z,10.33
2023-01-27T15:26:55.594Z,9.50
2023-01-27T15:29:26.044Z,11.43
2023-01-27T15:32:13.768Z,10.27
2023-01-27T15:34:41.114Z,10.17
2023-01-27T15:37:11.039Z,9.47
2023-01-27T15:40:03.947Z,10.13
2023-01-27T15:42:47.360Z,12.17
2023-01-27T15:45:34.354Z,13.60
2023-01-27T15:48:01.567Z,10.93
2023-01-27T15:50:31.447Z,9.90
2023-01-27T15:53:03.614Z,8.83
2023-01-27T15:55:32.229Z,12.83
2023-01-27T15:58:07.105Z,13.67
2023-01-27T16:00:34.258Z,13.87
2023-01-27T16:03:03.642Z,12.30
2023-01-27T16:05:37.850Z,10.20
2023-01-27T16:08:11.090Z,8.40
2023-01-27T16:10:38.359Z,8.57
2023-01-27T16:13:24.149Z,8.03
2023-01-27T16:16:11.233Z,9.93
2023-01-27T16:18:44.001Z,10.23
2023-01-27T16:21:22.680Z,9.67
2023-01-27T16:23:53.483Z,10.10
2023-01-27T16:26:28.571Z,8.97
2023-01-27T16:29:26.455Z,8.33
2023-01-27T16:31:55.604Z,7.40
2023-01-27T16:34:26.088Z,8.47
2023-01-27T16:37:04.764Z,10.37
2023-01-27T16:39:35.174Z,13.90
2023-01-27T16:42:03.122Z,11.73
2023-01-27T16:44:44.540Z,11.53
2023-01-27T16:47:18.427Z,13.13
2023-01-27T16:49:45.863Z,15.30
2023-01-27T16:52:24.655Z,14.17
2023-01-27T16:54:57.168Z,13.60
2023-01-27T16:57:30.301Z,12.47
2023-01-27T17:00:00.234Z,11.83
2023-01-27T17:02:28.491Z,12.90
2023-01-27T17:04:56.947Z,13.17
2023-01-27T17:07:24.076Z,11.63
2023-01-27T17:09:55.595Z,14.20
2023-01-27T17:12:28.999Z,13.93
2023-01-27T17:14:56.191Z,9.90
2023-01-27T17:17:24.391Z,9.37
2023-01-27T17:19:52.744Z,10.67
2023-01-27T17:22:19.856Z,8.97
2023-01-27T17:24:50.793Z,9.10
2023-01-27T17:27:26.716Z,9.43
2023-01-27T17:30:00.210Z,8.77
2023-01-27T17:32:29.421Z,9.67
2023-01-27T17:34:58.077Z,8.33
2023-01-27T17:37:25.335Z,9.43
2023-01-27T17:39:53.579Z,11.23
2023-01-27T17:42:21.647Z,8.70
2023-01-27T17:44:50.523Z,11.17
2023-01-27T17:47:18.802Z,10.73
2023-01-27T17:49:47.455Z,12.43
2023-01-27T17:52:22.552Z,11.17
2023-01-27T17:54:50.034Z,10.07
2023-01-27T17:57:19.063Z,9.37
2023-01-27T17:59:54.064Z,9.07
2023-01-27T18:02:25.698Z,9.17
2023-01-27T18:04:54.888Z,8.10
2023-01-27T18:07:22.153Z,8.73
2023-01-27T18:09:56.422Z,11.27
2023-01-27T18:12:31.815Z,8.67
2023-01-27T18:14:59.419Z,7.20
2023-01-27T18:17:27.915Z,7.30
2023-01-27T18:19:56.775Z,9.60
2023-01-27T18:22:28.170Z,9.17
2023-01-27T18:25:00.806Z,7.23
2023-01-27T18:27:32.283Z,7.70
2023-01-27T18:30:02.097Z,7.37
2023-01-27T18:32:36.665Z,7.70
2023-01-27T18:35:04.943Z,7.07
2023-01-27T18:37:32.882Z,6.80
2023-01-27T18:43:22.306Z,8.97
2023-01-27T18:45:50.506Z,9.83
2023-01-27T18:48:38.385Z,7.40
2023-01-27T18:51:09.601Z,8.97
2023-01-27T18:53:36.753Z,8.67
2023-01-27T18:56:04.494Z,8.13
2023-01-27T18:58:31.661Z,9.60
2023-01-27T19:00:59.718Z,10.00
2023-01-27T19:03:27.881Z,10.37
2023-01-27T19:05:55.242Z,9.03
2023-01-27T19:08:23.498Z,11.37
2023-01-27T19:10:51.763Z,12.23
2023-01-27T19:13:19.338Z,10.10
2023-01-27T19:15:54.976Z,7.87
2023-01-27T19:18:38.649Z,8.77
2023-01-27T19:21:05.992Z,9.23
2023-01-27T19:23:33.358Z,7.93
2023-01-27T19:26:03.493Z,10.53
2023-01-27T19:28:35.848Z,9.17
2023-01-27T19:31:03.350Z,8.10
2023-01-27T19:33:34.760Z,7.77
2023-01-27T19:36:03.740Z,8.50
2023-01-27T19:38:30.901Z,8.07
2023-01-27T19:40:58.128Z,9.00
2023-01-27T19:43:25.327Z,8.67
2023-01-27T19:45:52.595Z,9.67
2023-01-27T19:48:21.758Z,9.00
2023-01-27T19:50:49.672Z,9.37
2023-01-27T19:53:17.383Z,8.90
2023-01-27T19:55:45.462Z,9.60
2023-01-27T19:58:38.987Z,11.47
2023-01-27T20:01:06.243Z,12.43
2023-01-27T20:03:33.416Z,12.87
2023-01-27T20:06:00.578Z,12.03
2023-01-27T20:08:27.696Z,10.73
2023-01-27T20:10:54.842Z,9.20
2023-01-27T20:13:22.149Z,8.60
2023-01-27T20:15:49.321Z,10.03
2023-01-27T20:18:17.533Z,9.33
2023-01-27T20:20:45.581Z,11.00
2023-01-27T20:23:14.309Z,10.70
2023-01-27T20:25:41.449Z,10.47
2023-01-27T20:28:09.959Z,8.20
2023-01-27T20:30:37.205Z,11.87
2023-01-27T20:33:05.063Z,11.37
2023-01-27T20:35:32.292Z,14.63
2023-01-27T20:37:59.427Z,11.23
2023-01-27T20:40:29.909Z,10.83
2023-01-27T20:42:57.091Z,9.10
2023-01-27T20:45:24.345Z,8.90
2023-01-27T20:47:52.296Z,8.73
2023-01-27T20:50:23.422Z,9.87
2023-01-27T20:52:52.248Z,12.10
2023-01-27T20:55:19.760Z,9.87
2023-01-27T20:57:47.375Z,12.67
2023-01-27T21:00:19.559Z,20.57
2023-01-27T21:02:47.552Z,24.87
2023-01-27T21:05:15.376Z,13.30
2023-01-27T21:07:42.884Z,11.97
2023-01-27T21:10:10.336Z,13.27
2023-01-27T21:12:37.477Z,11.83
2023-01-27T21:15:09.520Z,13.50
2023-01-27T21:17:36.883Z,12.50
2023-01-27T21:20:05.416Z,14.37
2023-01-27T21:22:34.555Z,15.63
2023-01-27T21:25:01.820Z,18.30
2023-01-27T21:27:28.998Z,18.77
2023-01-27T21:29:56.204Z,17.93
2023-01-27T21:32:23.398Z,16.90
2023-01-27T21:34:50.544Z,20.40
2023-01-27T21:37:17.713Z,23.80
2023-01-27T21:39:44.886Z,23.60
2023-01-27T21:42:15.082Z,26.87
2023-01-27T21:45:01.159Z,48.07
2023-01-27T21:47:28.314Z,53.67
2023-01-27T21:50:01.566Z,56.33
2023-01-27T21:52:56.904Z,47.27
2023-01-27T21:55:25.377Z,42.03
2023-01-27T21:57:53.309Z,38.33
2023-01-27T22:00:22.489Z,20.80
2023-01-27T22:02:55.383Z,12.10
2023-01-27T22:05:22.823Z,13.93
2023-01-27T22:07:51.682Z,13.70
2023-01-27T22:10:20.119Z,15.53
2023-01-27T22:12:47.657Z,16.93
2023-01-27T22:15:16.010Z,15.73
2023-01-27T22:17:44.213Z,14.60
2023-01-27T22:20:18.186Z,20.83
2023-01-27T22:22:45.846Z,23.80
2023-01-27T22:25:14.479Z,21.17
2023-01-27T22:27:42.377Z,15.77
2023-01-27T22:30:10.802Z,15.27
2023-01-27T22:32:37.976Z,14.07
2023-01-27T22:35:05.953Z,12.07
2023-01-27T22:37:34.167Z,11.03
2023-01-27T22:40:01.712Z,22.27
2023-01-27T22:42:28.845Z,17.63
2023-01-27T22:44:56.001Z,14.40
2023-01-27T22:47:23.147Z,16.93
2023-01-27T22:49:50.321Z,30.00
2023-01-27T22:52:17.591Z,21.93
2023-01-27T22:54:44.782Z,23.00
2023-01-27T22:57:12.013Z,18.10
2023-01-27T22:59:39.208Z,27.20
2023-01-27T23:02:06.343Z,14.37
2023-01-27T23:04:33.485Z,12.50
2023-01-27T23:07:00.668Z,13.47
2023-01-27T23:09:27.794Z,14.47
2023-01-27T23:11:54.929Z,16.57
2023-01-27T23:14:22.088Z,12.67
2023-01-27T23:16:52.815Z,9.40
2023-01-27T23:19:21.919Z,10.90
2023-01-27T23:21:49.092Z,9.60
2023-01-27T23:24:16.331Z,7.40
2023-01-27T23:26:43.552Z,9.27
2023-01-27T23:29:22.892Z,7.73
2023-01-27T23:31:51.752Z,8.17
2023-01-27T23:34:19.029Z,7.83
2023-01-27T23:36:46.181Z,5.97
2023-01-27T23:39:14.487Z,7.53
2023-01-27T23:41:41.765Z,6.87
2023-01-27T23:44:12.088Z,7.07
2023-01-27T23:46:39.419Z,5.73
2023-01-27T23:49:07.749Z,6.87
2023-01-27T23:51:34.936Z,7.20
2023-01-27T23:54:03.039Z,5.30
2023-01-27T23:56:31.133Z,5.93
2023-01-27T23:58:58.261Z,6.47
